sensor_id;sensor_type;location;lat;lon;timestamp;noise_LAeq;noise_LA_min;noise_LA_max;noise_LA01;noise_LA95
72415;Laerm;60995;52.154;4.498;2023-07-13T00:00:22;43.08;36.59;51.50;;
72415;Laerm;60995;52.154;4.498;2023-07-13T00:02:39;42.49;36.76;52.23;;
72415;Laerm;60995;52.154;4.498;2023-07-13T00:04:55;42.26;35.09;52.03;;
72415;Laerm;60995;52.154;4.498;2023-07-13T00:07:11;43.14;36.14;52.83;;
72415;Laerm;60995;52.154;4.498;2023-07-13T00:09:30;42.17;36.09;51.72;;
72415;Laerm;60995;52.154;4.498;2023-07-13T00:11:55;42.14;35.75;53.37;;
72415;Laerm;60995;52.154;4.498;2023-07-13T00:14:12;42.97;35.99;52.18;;
72415;Laerm;60995;52.154;4.498;2023-07-13T00:16:28;45.75;36.79;62.77;;
72415;Laerm;60995;52.154;4.498;2023-07-13T00:18:45;42.83;36.68;57.70;;
72415;Laerm;60995;52.154;4.498;2023-07-13T00:21:01;42.57;36.36;55.30;;
72415;Laerm;60995;52.154;4.498;2023-07-13T00:23:21;42.40;35.97;53.73;;
72415;Laerm;60995;52.154;4.498;2023-07-13T00:25:37;43.02;36.52;52.61;;
72415;Laerm;60995;52.154;4.498;2023-07-13T00:27:54;42.39;36.11;52.84;;
72415;Laerm;60995;52.154;4.498;2023-07-13T00:30:11;42.23;35.92;52.08;;
72415;Laerm;60995;52.154;4.498;2023-07-13T00:32:28;42.94;36.13;62.69;;
72415;Laerm;60995;52.154;4.498;2023-07-13T00:34:45;43.58;36.59;52.95;;
72415;Laerm;60995;52.154;4.498;2023-07-13T00:37:02;42.30;35.91;52.19;;
72415;Laerm;60995;52.154;4.498;2023-07-13T00:39:18;42.37;36.50;51.59;;
72415;Laerm;60995;52.154;4.498;2023-07-13T00:41:35;43.60;37.04;54.11;;
72415;Laerm;60995;52.154;4.498;2023-07-13T00:43:52;43.40;36.53;52.18;;
72415;Laerm;60995;52.154;4.498;2023-07-13T00:46:26;42.51;36.45;52.29;;
72415;Laerm;60995;52.154;4.498;2023-07-13T00:48:44;40.06;36.31;46.42;;
72415;Laerm;60995;52.154;4.498;2023-07-13T00:51:02;42.86;36.52;52.19;;
72415;Laerm;60995;52.154;4.498;2023-07-13T00:53:19;43.14;36.80;52.99;;
72415;Laerm;60995;52.154;4.498;2023-07-13T00:55:36;42.58;36.89;51.57;;
72415;Laerm;60995;52.154;4.498;2023-07-13T00:57:52;42.73;36.65;52.58;;
72415;Laerm;60995;52.154;4.498;2023-07-13T01:00:10;42.63;36.51;56.00;;
72415;Laerm;60995;52.154;4.498;2023-07-13T01:02:28;42.30;36.13;54.35;;
72415;Laerm;60995;52.154;4.498;2023-07-13T01:04:44;42.37;36.33;52.98;;
72415;Laerm;60995;52.154;4.498;2023-07-13T01:07:01;43.77;35.98;54.18;;
72415;Laerm;60995;52.154;4.498;2023-07-13T01:09:17;44.03;36.98;53.78;;
72415;Laerm;60995;52.154;4.498;2023-07-13T01:11:34;42.19;36.07;52.26;;
72415;Laerm;60995;52.154;4.498;2023-07-13T01:13:51;42.71;36.11;52.72;;
72415;Laerm;60995;52.154;4.498;2023-07-13T01:16:20;42.63;36.43;55.88;;
72415;Laerm;60995;52.154;4.498;2023-07-13T01:18:38;42.16;36.23;53.10;;
72415;Laerm;60995;52.154;4.498;2023-07-13T01:21:02;43.78;36.72;53.09;;
72415;Laerm;60995;52.154;4.498;2023-07-13T01:23:19;42.69;35.83;52.72;;
72415;Laerm;60995;52.154;4.498;2023-07-13T01:25:37;42.39;35.66;55.83;;
72415;Laerm;60995;52.154;4.498;2023-07-13T01:27:53;42.41;36.20;51.75;;
72415;Laerm;60995;52.154;4.498;2023-07-13T01:30:10;42.38;35.77;51.87;;
72415;Laerm;60995;52.154;4.498;2023-07-13T01:32:27;42.55;36.66;51.76;;
72415;Laerm;60995;52.154;4.498;2023-07-13T01:34:43;43.20;36.39;51.24;;
72415;Laerm;60995;52.154;4.498;2023-07-13T01:37:00;43.34;36.89;52.90;;
72415;Laerm;60995;52.154;4.498;2023-07-13T01:39:16;42.56;36.40;51.45;;
72415;Laerm;60995;52.154;4.498;2023-07-13T01:41:33;42.51;36.08;51.77;;
72415;Laerm;60995;52.154;4.498;2023-07-13T01:43:49;43.24;36.87;53.34;;
72415;Laerm;60995;52.154;4.498;2023-07-13T01:46:05;44.74;36.50;62.83;;
72415;Laerm;60995;52.154;4.498;2023-07-13T01:48:21;43.18;36.80;52.40;;
72415;Laerm;60995;52.154;4.498;2023-07-13T01:50:38;43.24;37.03;51.43;;
72415;Laerm;60995;52.154;4.498;2023-07-13T01:52:54;42.89;36.96;51.84;;
72415;Laerm;60995;52.154;4.498;2023-07-13T01:55:11;42.82;36.49;52.09;;
72415;Laerm;60995;52.154;4.498;2023-07-13T01:57:27;42.90;36.61;52.99;;
72415;Laerm;60995;52.154;4.498;2023-07-13T01:59:43;42.86;36.57;52.49;;
72415;Laerm;60995;52.154;4.498;2023-07-13T02:02:00;43.52;36.33;51.90;;
72415;Laerm;60995;52.154;4.498;2023-07-13T02:04:16;42.93;36.23;52.05;;
72415;Laerm;60995;52.154;4.498;2023-07-13T02:06:32;42.78;36.16;51.89;;
72415;Laerm;60995;52.154;4.498;2023-07-13T02:08:49;43.02;36.36;52.27;;
72415;Laerm;60995;52.154;4.498;2023-07-13T02:11:05;43.36;37.39;52.02;;
72415;Laerm;60995;52.154;4.498;2023-07-13T02:13:21;43.32;36.66;56.57;;
72415;Laerm;60995;52.154;4.498;2023-07-13T02:15:40;43.04;35.77;56.81;;
72415;Laerm;60995;52.154;4.498;2023-07-13T02:17:57;43.97;37.16;53.62;;
72415;Laerm;60995;52.154;4.498;2023-07-13T02:20:14;44.02;37.26;60.66;;
72415;Laerm;60995;52.154;4.498;2023-07-13T02:22:30;43.64;37.00;56.81;;
72415;Laerm;60995;52.154;4.498;2023-07-13T02:24:47;42.99;36.49;55.88;;
72415;Laerm;60995;52.154;4.498;2023-07-13T02:27:04;43.36;36.25;55.90;;
72415;Laerm;60995;52.154;4.498;2023-07-13T02:29:20;46.10;37.02;61.69;;
72415;Laerm;60995;52.154;4.498;2023-07-13T02:31:37;43.99;37.12;57.05;;
72415;Laerm;60995;52.154;4.498;2023-07-13T02:33:53;46.59;37.28;64.93;;
72415;Laerm;60995;52.154;4.498;2023-07-13T02:36:11;49.22;37.12;70.96;;
72415;Laerm;60995;52.154;4.498;2023-07-13T02:38:28;46.43;37.61;68.55;;
72415;Laerm;60995;52.154;4.498;2023-07-13T02:40:46;47.85;36.90;69.95;;
72415;Laerm;60995;52.154;4.498;2023-07-13T02:43:03;45.37;37.96;55.34;;
72415;Laerm;60995;52.154;4.498;2023-07-13T02:45:19;43.76;37.34;53.19;;
72415;Laerm;60995;52.154;4.498;2023-07-13T02:47:36;43.70;37.46;57.49;;
72415;Laerm;60995;52.154;4.498;2023-07-13T02:49:52;51.61;38.38;69.41;;
72415;Laerm;60995;52.154;4.498;2023-07-13T02:52:09;50.92;37.99;67.64;;
72415;Laerm;60995;52.154;4.498;2023-07-13T02:54:25;47.27;37.63;63.43;;
72415;Laerm;60995;52.154;4.498;2023-07-13T02:56:41;51.51;36.44;70.20;;
72415;Laerm;60995;52.154;4.498;2023-07-13T02:58:59;55.61;38.57;76.03;;
72415;Laerm;60995;52.154;4.498;2023-07-13T03:01:16;53.65;36.95;68.08;;
72415;Laerm;60995;52.154;4.498;2023-07-13T03:03:34;49.43;37.50;68.29;;
72415;Laerm;60995;52.154;4.498;2023-07-13T03:06:00;44.23;38.14;62.32;;
72415;Laerm;60995;52.154;4.498;2023-07-13T03:08:19;45.40;37.53;64.60;;
72415;Laerm;60995;52.154;4.498;2023-07-13T03:10:35;45.16;37.72;61.81;;
72415;Laerm;60995;52.154;4.498;2023-07-13T03:12:52;43.58;37.42;52.18;;
72415;Laerm;60995;52.154;4.498;2023-07-13T03:15:08;43.99;37.54;60.39;;
72415;Laerm;60995;52.154;4.498;2023-07-13T03:17:25;44.05;37.27;60.94;;
72415;Laerm;60995;52.154;4.498;2023-07-13T03:19:41;45.03;36.88;59.03;;
72415;Laerm;60995;52.154;4.498;2023-07-13T03:21:58;44.80;38.15;56.14;;
72415;Laerm;60995;52.154;4.498;2023-07-13T03:24:14;46.85;37.41;68.58;;
72415;Laerm;60995;52.154;4.498;2023-07-13T03:26:31;54.10;38.98;71.12;;
72415;Laerm;60995;52.154;4.498;2023-07-13T03:28:48;49.29;39.28;66.53;;
72415;Laerm;60995;52.154;4.498;2023-07-13T03:31:20;63.40;39.76;80.33;;
72415;Laerm;60995;52.154;4.498;2023-07-13T03:33:37;53.62;38.32;78.84;;
72415;Laerm;60995;52.154;4.498;2023-07-13T03:35:53;46.86;38.42;60.61;;
72415;Laerm;60995;52.154;4.498;2023-07-13T03:38:09;45.38;38.93;62.03;;
72415;Laerm;60995;52.154;4.498;2023-07-13T03:40:27;47.68;38.75;68.87;;
72415;Laerm;60995;52.154;4.498;2023-07-13T03:42:44;45.99;39.30;57.31;;
72415;Laerm;60995;52.154;4.498;2023-07-13T03:45:00;45.40;38.61;54.50;;
72415;Laerm;60995;52.154;4.498;2023-07-13T03:47:16;44.30;38.07;67.07;;
72415;Laerm;60995;52.154;4.498;2023-07-13T03:49:33;45.54;38.42;57.55;;
72415;Laerm;60995;52.154;4.498;2023-07-13T03:51:49;46.44;39.25;64.70;;
72415;Laerm;60995;52.154;4.498;2023-07-13T03:54:05;47.58;38.04;64.64;;
72415;Laerm;60995;52.154;4.498;2023-07-13T03:56:22;46.40;38.76;58.97;;
72415;Laerm;60995;52.154;4.498;2023-07-13T03:58:40;46.68;37.47;62.09;;
72415;Laerm;60995;52.154;4.498;2023-07-13T04:00:58;45.66;39.14;54.98;;
72415;Laerm;60995;52.154;4.498;2023-07-13T04:03:16;46.08;38.60;56.82;;
72415;Laerm;60995;52.154;4.498;2023-07-13T04:05:32;45.67;39.39;57.29;;
72415;Laerm;60995;52.154;4.498;2023-07-13T04:07:48;47.06;38.55;66.48;;
72415;Laerm;60995;52.154;4.498;2023-07-13T04:10:05;46.45;38.55;55.08;;
72415;Laerm;60995;52.154;4.498;2023-07-13T04:12:21;45.51;39.03;54.29;;
72415;Laerm;60995;52.154;4.498;2023-07-13T04:14:38;46.81;39.46;58.12;;
72415;Laerm;60995;52.154;4.498;2023-07-13T04:16:54;46.89;38.75;63.80;;
72415;Laerm;60995;52.154;4.498;2023-07-13T04:19:10;45.88;38.87;56.79;;
72415;Laerm;60995;52.154;4.498;2023-07-13T04:21:29;47.37;39.51;63.04;;
72415;Laerm;60995;52.154;4.498;2023-07-13T04:23:45;46.91;38.96;62.00;;
72415;Laerm;60995;52.154;4.498;2023-07-13T04:26:02;47.48;39.16;57.28;;
72415;Laerm;60995;52.154;4.498;2023-07-13T04:28:23;46.23;38.99;57.05;;
72415;Laerm;60995;52.154;4.498;2023-07-13T04:30:40;45.76;38.72;54.12;;
72415;Laerm;60995;52.154;4.498;2023-07-13T04:32:56;45.91;38.53;57.26;;
72415;Laerm;60995;52.154;4.498;2023-07-13T04:35:12;46.07;38.98;53.15;;
72415;Laerm;60995;52.154;4.498;2023-07-13T04:37:30;46.51;39.79;62.31;;
72415;Laerm;60995;52.154;4.498;2023-07-13T04:39:46;50.31;41.24;68.96;;
72415;Laerm;60995;52.154;4.498;2023-07-13T04:42:03;48.74;40.94;62.15;;
72415;Laerm;60995;52.154;4.498;2023-07-13T04:44:20;48.55;40.20;67.06;;
72415;Laerm;60995;52.154;4.498;2023-07-13T04:46:37;47.57;39.90;62.81;;
72415;Laerm;60995;52.154;4.498;2023-07-13T04:48:53;47.33;39.12;57.54;;
72415;Laerm;60995;52.154;4.498;2023-07-13T04:51:10;49.62;38.97;65.81;;
72415;Laerm;60995;52.154;4.498;2023-07-13T04:53:27;49.01;39.57;60.51;;
72415;Laerm;60995;52.154;4.498;2023-07-13T04:55:44;48.61;39.82;64.57;;
72415;Laerm;60995;52.154;4.498;2023-07-13T04:58:00;46.19;39.23;58.74;;
72415;Laerm;60995;52.154;4.498;2023-07-13T05:00:17;49.86;39.53;73.09;;
72415;Laerm;60995;52.154;4.498;2023-07-13T05:02:34;47.26;40.10;54.78;;
72415;Laerm;60995;52.154;4.498;2023-07-13T05:04:51;47.02;39.14;57.84;;
72415;Laerm;60995;52.154;4.498;2023-07-13T05:07:07;49.21;38.88;67.49;;
72415;Laerm;60995;52.154;4.498;2023-07-13T05:09:23;48.38;40.67;62.22;;
72415;Laerm;60995;52.154;4.498;2023-07-13T05:11:39;51.20;40.47;67.88;;
72415;Laerm;60995;52.154;4.498;2023-07-13T05:13:56;48.12;38.64;55.73;;
72415;Laerm;60995;52.154;4.498;2023-07-13T05:16:12;47.13;39.09;59.96;;
72415;Laerm;60995;52.154;4.498;2023-07-13T05:18:30;54.92;38.51;80.02;;
72415;Laerm;60995;52.154;4.498;2023-07-13T05:20:46;55.20;40.17;76.49;;
72415;Laerm;60995;52.154;4.498;2023-07-13T05:23:02;55.51;39.98;76.54;;
72415;Laerm;60995;52.154;4.498;2023-07-13T05:25:19;48.21;40.17;62.28;;
72415;Laerm;60995;52.154;4.498;2023-07-13T05:27:36;46.78;38.71;55.37;;
72415;Laerm;60995;52.154;4.498;2023-07-13T05:29:53;52.24;37.99;66.85;;
72415;Laerm;60995;52.154;4.498;2023-07-13T05:32:09;51.65;39.32;64.51;;
72415;Laerm;60995;52.154;4.498;2023-07-13T05:34:25;50.16;40.62;65.23;;
72415;Laerm;60995;52.154;4.498;2023-07-13T05:36:42;49.15;41.24;60.88;;
72415;Laerm;60995;52.154;4.498;2023-07-13T05:38:59;48.85;39.53;62.25;;
72415;Laerm;60995;52.154;4.498;2023-07-13T05:41:15;48.92;39.20;61.44;;
72415;Laerm;60995;52.154;4.498;2023-07-13T05:43:31;49.57;38.71;64.33;;
72415;Laerm;60995;52.154;4.498;2023-07-13T05:45:48;47.02;39.67;56.23;;
72415;Laerm;60995;52.154;4.498;2023-07-13T05:48:06;49.06;41.09;56.05;;
72415;Laerm;60995;52.154;4.498;2023-07-13T05:50:22;50.20;40.56;74.77;;
72415;Laerm;60995;52.154;4.498;2023-07-13T05:52:38;48.00;40.71;55.82;;
72415;Laerm;60995;52.154;4.498;2023-07-13T05:54:54;51.37;39.79;63.88;;
72415;Laerm;60995;52.154;4.498;2023-07-13T05:57:11;49.68;40.05;62.02;;
72415;Laerm;60995;52.154;4.498;2023-07-13T05:59:27;48.76;40.88;57.74;;
72415;Laerm;60995;52.154;4.498;2023-07-13T06:01:43;47.58;39.11;57.02;;
72415;Laerm;60995;52.154;4.498;2023-07-13T06:03:59;50.20;39.38;64.45;;
72415;Laerm;60995;52.154;4.498;2023-07-13T06:06:16;51.01;42.53;63.29;;
72415;Laerm;60995;52.154;4.498;2023-07-13T06:08:33;49.80;42.15;58.74;;
72415;Laerm;60995;52.154;4.498;2023-07-13T06:10:49;49.47;41.56;59.51;;
72415;Laerm;60995;52.154;4.498;2023-07-13T06:13:05;49.55;39.71;58.95;;
72415;Laerm;60995;52.154;4.498;2023-07-13T06:15:21;49.65;41.85;57.17;;
72415;Laerm;60995;52.154;4.498;2023-07-13T06:17:38;50.91;40.24;59.87;;
72415;Laerm;60995;52.154;4.498;2023-07-13T06:19:54;51.90;41.24;64.88;;
72415;Laerm;60995;52.154;4.498;2023-07-13T06:22:10;54.24;43.65;70.43;;
72415;Laerm;60995;52.154;4.498;2023-07-13T06:24:27;49.38;41.91;57.09;;
72415;Laerm;60995;52.154;4.498;2023-07-13T06:26:43;50.91;40.44;59.89;;
72415;Laerm;60995;52.154;4.498;2023-07-13T06:28:59;54.54;42.16;67.10;;
72415;Laerm;60995;52.154;4.498;2023-07-13T06:31:16;52.68;41.77;72.22;;
72415;Laerm;60995;52.154;4.498;2023-07-13T06:33:33;52.27;41.74;64.52;;
72415;Laerm;60995;52.154;4.498;2023-07-13T06:35:49;50.11;40.19;63.94;;
72415;Laerm;60995;52.154;4.498;2023-07-13T06:38:05;50.89;40.87;63.06;;
72415;Laerm;60995;52.154;4.498;2023-07-13T06:40:22;51.73;41.98;64.10;;
72415;Laerm;60995;52.154;4.498;2023-07-13T06:42:38;52.26;41.97;62.38;;
72415;Laerm;60995;52.154;4.498;2023-07-13T06:44:54;53.94;42.37;66.90;;
72415;Laerm;60995;52.154;4.498;2023-07-13T06:47:11;49.10;39.02;60.33;;
72415;Laerm;60995;52.154;4.498;2023-07-13T06:49:27;50.56;40.96;62.45;;
72415;Laerm;60995;52.154;4.498;2023-07-13T06:51:43;53.83;42.80;65.51;;
72415;Laerm;60995;52.154;4.498;2023-07-13T06:53:59;49.54;40.72;62.25;;
72415;Laerm;60995;52.154;4.498;2023-07-13T06:56:16;54.50;41.72;71.69;;
72415;Laerm;60995;52.154;4.498;2023-07-13T06:58:34;52.61;40.73;71.20;;
72415;Laerm;60995;52.154;4.498;2023-07-13T07:00:52;50.11;39.55;67.74;;
72415;Laerm;60995;52.154;4.498;2023-07-13T07:03:08;51.74;40.65;64.29;;
72415;Laerm;60995;52.154;4.498;2023-07-13T07:05:25;49.17;40.86;57.83;;
72415;Laerm;60995;52.154;4.498;2023-07-13T07:07:41;49.34;42.53;58.41;;
72415;Laerm;60995;52.154;4.498;2023-07-13T07:09:58;48.09;40.45;56.76;;
72415;Laerm;60995;52.154;4.498;2023-07-13T07:12:14;49.86;40.19;64.24;;
72415;Laerm;60995;52.154;4.498;2023-07-13T07:14:31;49.45;39.15;68.43;;
72415;Laerm;60995;52.154;4.498;2023-07-13T07:16:47;48.86;41.04;71.23;;
72415;Laerm;60995;52.154;4.498;2023-07-13T07:19:04;49.61;41.97;63.92;;
72415;Laerm;60995;52.154;4.498;2023-07-13T07:21:20;49.70;41.58;65.53;;
72415;Laerm;60995;52.154;4.498;2023-07-13T07:23:39;50.70;39.83;66.92;;
72415;Laerm;60995;52.154;4.498;2023-07-13T07:25:55;57.35;42.66;72.29;;
72415;Laerm;60995;52.154;4.498;2023-07-13T07:28:15;48.30;39.19;59.90;;
72415;Laerm;60995;52.154;4.498;2023-07-13T07:30:33;49.19;39.15;60.60;;
72415;Laerm;60995;52.154;4.498;2023-07-13T07:32:50;48.55;39.80;59.60;;
72415;Laerm;60995;52.154;4.498;2023-07-13T07:35:07;48.21;39.77;60.23;;
72415;Laerm;60995;52.154;4.498;2023-07-13T07:37:24;48.88;39.32;62.44;;
72415;Laerm;60995;52.154;4.498;2023-07-13T07:39:40;50.74;40.83;61.84;;
72415;Laerm;60995;52.154;4.498;2023-07-13T07:41:57;49.24;39.04;62.80;;
72415;Laerm;60995;52.154;4.498;2023-07-13T07:44:13;52.61;41.28;64.12;;
72415;Laerm;60995;52.154;4.498;2023-07-13T07:46:29;53.98;42.83;66.37;;
72415;Laerm;60995;52.154;4.498;2023-07-13T07:48:46;51.03;41.39;70.77;;
72415;Laerm;60995;52.154;4.498;2023-07-13T07:51:02;50.92;40.66;70.51;;
72415;Laerm;60995;52.154;4.498;2023-07-13T07:53:18;50.02;41.33;64.99;;
72415;Laerm;60995;52.154;4.498;2023-07-13T07:55:35;56.23;42.48;72.39;;
72415;Laerm;60995;52.154;4.498;2023-07-13T07:57:52;50.03;40.94;60.95;;
72415;Laerm;60995;52.154;4.498;2023-07-13T08:00:09;51.19;41.30;64.32;;
72415;Laerm;60995;52.154;4.498;2023-07-13T08:02:26;49.80;40.38;70.81;;
72415;Laerm;60995;52.154;4.498;2023-07-13T08:04:42;49.71;40.90;63.59;;
72415;Laerm;60995;52.154;4.498;2023-07-13T08:06:59;50.62;40.91;62.32;;
72415;Laerm;60995;52.154;4.498;2023-07-13T08:09:18;50.38;41.39;61.05;;
72415;Laerm;60995;52.154;4.498;2023-07-13T08:11:35;49.17;40.84;61.25;;
72415;Laerm;60995;52.154;4.498;2023-07-13T08:13:51;49.28;40.51;60.82;;
72415;Laerm;60995;52.154;4.498;2023-07-13T08:16:08;50.68;43.92;57.41;;
72415;Laerm;60995;52.154;4.498;2023-07-13T08:18:24;50.22;40.99;64.02;;
72415;Laerm;60995;52.154;4.498;2023-07-13T08:20:41;51.98;41.84;68.88;;
72415;Laerm;60995;52.154;4.498;2023-07-13T08:22:57;49.96;41.83;60.06;;
72415;Laerm;60995;52.154;4.498;2023-07-13T08:25:13;49.34;40.08;58.91;;
72415;Laerm;60995;52.154;4.498;2023-07-13T08:27:30;48.06;40.94;55.81;;
72415;Laerm;60995;52.154;4.498;2023-07-13T08:29:47;48.25;41.05;56.69;;
72415;Laerm;60995;52.154;4.498;2023-07-13T08:32:06;48.58;41.06;56.74;;
72415;Laerm;60995;52.154;4.498;2023-07-13T08:34:25;51.10;41.74;59.84;;
72415;Laerm;60995;52.154;4.498;2023-07-13T08:36:41;49.25;39.61;61.04;;
72415;Laerm;60995;52.154;4.498;2023-07-13T08:38:57;50.09;41.64;61.57;;
72415;Laerm;60995;52.154;4.498;2023-07-13T08:41:23;50.36;42.47;58.87;;
72415;Laerm;60995;52.154;4.498;2023-07-13T08:43:41;53.40;43.18;65.38;;
72415;Laerm;60995;52.154;4.498;2023-07-13T08:46:29;50.33;41.17;68.27;;
72415;Laerm;60995;52.154;4.498;2023-07-13T08:48:57;50.35;40.51;59.60;;
72415;Laerm;60995;52.154;4.498;2023-07-13T08:53:49;51.52;42.04;61.59;;
72415;Laerm;60995;52.154;4.498;2023-07-13T08:56:17;49.50;39.82;58.42;;
72415;Laerm;60995;52.154;4.498;2023-07-13T08:58:36;50.31;42.24;62.44;;
72415;Laerm;60995;52.154;4.498;2023-07-13T09:01:05;49.96;40.90;60.59;;
72415;Laerm;60995;52.154;4.498;2023-07-13T09:03:40;50.71;42.79;61.21;;
72415;Laerm;60995;52.154;4.498;2023-07-13T09:06:02;51.48;39.98;73.03;;
72415;Laerm;60995;52.154;4.498;2023-07-13T09:14:15;50.91;43.43;59.98;;
72415;Laerm;60995;52.154;4.498;2023-07-13T09:16:23;50.11;41.79;61.67;;
72415;Laerm;60995;52.154;4.498;2023-07-13T09:18:45;51.13;42.79;62.18;;
72415;Laerm;60995;52.154;4.498;2023-07-13T09:21:17;50.42;42.61;64.69;;
72415;Laerm;60995;52.154;4.498;2023-07-13T09:23:36;51.74;40.23;65.47;;
72415;Laerm;60995;52.154;4.498;2023-07-13T09:26:00;53.86;40.12;71.02;;
72415;Laerm;60995;52.154;4.498;2023-07-13T09:28:23;50.64;38.78;66.78;;
72415;Laerm;60995;52.154;4.498;2023-07-13T09:30:58;52.77;41.39;70.10;;
72415;Laerm;60995;52.154;4.498;2023-07-13T09:33:17;50.71;42.13;65.98;;
72415;Laerm;60995;52.154;4.498;2023-07-13T09:35:34;50.92;41.09;60.36;;
72415;Laerm;60995;52.154;4.498;2023-07-13T09:37:57;51.95;41.27;66.39;;
72415;Laerm;60995;52.154;4.498;2023-07-13T09:43:14;50.30;42.42;66.36;;
72415;Laerm;60995;52.154;4.498;2023-07-13T09:45:34;53.14;42.73;66.90;;
72415;Laerm;60995;52.154;4.498;2023-07-13T09:48:00;53.56;43.36;64.86;;
72415;Laerm;60995;52.154;4.498;2023-07-13T09:50:20;51.57;41.01;61.89;;
72415;Laerm;60995;52.154;4.498;2023-07-13T09:52:47;50.88;42.85;64.74;;
72415;Laerm;60995;52.154;4.498;2023-07-13T09:55:04;50.54;41.42;63.20;;
72415;Laerm;60995;52.154;4.498;2023-07-13T09:57:24;52.43;39.60;63.29;;
72415;Laerm;60995;52.154;4.498;2023-07-13T09:59:46;49.85;41.40;60.44;;
72415;Laerm;60995;52.154;4.498;2023-07-13T10:02:26;50.63;41.54;61.45;;
72415;Laerm;60995;52.154;4.498;2023-07-13T10:04:43;50.53;42.37;72.82;;
72415;Laerm;60995;52.154;4.498;2023-07-13T10:07:09;50.11;41.96;60.77;;
72415;Laerm;60995;52.154;4.498;2023-07-13T10:09:27;50.39;41.87;64.38;;
72415;Laerm;60995;52.154;4.498;2023-07-13T10:11:43;50.64;42.28;64.56;;
72415;Laerm;60995;52.154;4.498;2023-07-13T10:14:08;49.46;40.38;60.58;;
72415;Laerm;60995;52.154;4.498;2023-07-13T10:16:30;50.36;42.60;59.24;;
72415;Laerm;60995;52.154;4.498;2023-07-13T10:18:57;51.05;43.25;62.17;;
72415;Laerm;60995;52.154;4.498;2023-07-13T10:21:20;50.33;42.00;60.73;;
72415;Laerm;60995;52.154;4.498;2023-07-13T10:23:37;48.73;40.34;57.87;;
72415;Laerm;60995;52.154;4.498;2023-07-13T10:25:56;50.05;42.64;60.46;;
72415;Laerm;60995;52.154;4.498;2023-07-13T10:30:43;49.35;42.17;58.04;;
72415;Laerm;60995;52.154;4.498;2023-07-13T10:33:09;49.76;41.23;58.56;;
72415;Laerm;60995;52.154;4.498;2023-07-13T10:35:29;51.16;42.66;60.70;;
72415;Laerm;60995;52.154;4.498;2023-07-13T10:40:37;49.86;41.49;63.72;;
72415;Laerm;60995;52.154;4.498;2023-07-13T10:42:58;50.36;41.35;64.75;;
72415;Laerm;60995;52.154;4.498;2023-07-13T10:45:20;51.25;41.71;63.24;;
72415;Laerm;60995;52.154;4.498;2023-07-13T10:47:38;49.89;40.76;60.57;;
72415;Laerm;60995;52.154;4.498;2023-07-13T10:49:58;50.72;42.10;64.94;;
72415;Laerm;60995;52.154;4.498;2023-07-13T10:52:46;52.09;43.40;67.61;;
72415;Laerm;60995;52.154;4.498;2023-07-13T10:55:03;50.35;43.26;58.49;;
72415;Laerm;60995;52.154;4.498;2023-07-13T10:57:21;49.69;41.11;58.46;;
72415;Laerm;60995;52.154;4.498;2023-07-13T10:59:37;50.03;42.28;59.17;;
72415;Laerm;60995;52.154;4.498;2023-07-13T11:04:20;52.08;42.26;65.93;;
72415;Laerm;60995;52.154;4.498;2023-07-13T11:06:41;54.01;44.83;71.50;;
72415;Laerm;60995;52.154;4.498;2023-07-13T11:11:44;50.95;41.68;63.05;;
72415;Laerm;60995;52.154;4.498;2023-07-13T11:14:04;50.54;40.33;62.44;;
72415;Laerm;60995;52.154;4.498;2023-07-13T11:18:39;52.76;41.23;65.01;;
72415;Laerm;60995;52.154;4.498;2023-07-13T11:21:20;51.18;42.77;64.05;;
72415;Laerm;60995;52.154;4.498;2023-07-13T11:23:43;50.55;43.34;62.43;;
72415;Laerm;60995;52.154;4.498;2023-07-13T11:26:02;51.00;42.85;61.56;;
72415;Laerm;60995;52.154;4.498;2023-07-13T11:28:24;51.62;41.95;73.19;;
72415;Laerm;60995;52.154;4.498;2023-07-13T11:33:22;52.35;41.92;68.10;;
72415;Laerm;60995;52.154;4.498;2023-07-13T11:39:03;50.01;41.26;58.69;;
72415;Laerm;60995;52.154;4.498;2023-07-13T11:41:06;50.14;41.57;66.40;;
72415;Laerm;60995;52.154;4.498;2023-07-13T11:43:23;50.87;42.02;58.96;;
72415;Laerm;60995;52.154;4.498;2023-07-13T11:45:40;50.27;40.80;61.11;;
72415;Laerm;60995;52.154;4.498;2023-07-13T11:47:56;50.23;42.27;62.99;;
72415;Laerm;60995;52.154;4.498;2023-07-13T11:50:24;50.13;41.46;65.03;;
72415;Laerm;60995;52.154;4.498;2023-07-13T11:52:40;49.51;42.65;58.22;;
72415;Laerm;60995;52.154;4.498;2023-07-13T11:55:00;50.54;41.83;67.61;;
72415;Laerm;60995;52.154;4.498;2023-07-13T11:57:40;54.87;42.28;77.90;;
72415;Laerm;60995;52.154;4.498;2023-07-13T12:00:03;50.63;42.61;61.80;;
72415;Laerm;60995;52.154;4.498;2023-07-13T12:02:29;50.11;41.93;62.43;;
72415;Laerm;60995;52.154;4.498;2023-07-13T12:04:47;50.64;42.70;64.08;;
72415;Laerm;60995;52.154;4.498;2023-07-13T12:07:14;50.53;41.51;67.44;;
72415;Laerm;60995;52.154;4.498;2023-07-13T12:09:30;51.65;42.51;74.42;;
72415;Laerm;60995;52.154;4.498;2023-07-13T12:11:46;50.99;43.78;73.60;;
72415;Laerm;60995;52.154;4.498;2023-07-13T12:14:03;52.38;42.29;75.48;;
72415;Laerm;60995;52.154;4.498;2023-07-13T12:16:30;52.14;40.75;78.87;;
72415;Laerm;60995;52.154;4.498;2023-07-13T12:18:48;51.85;40.47;66.41;;
72415;Laerm;60995;52.154;4.498;2023-07-13T12:21:05;56.45;40.57;81.16;;
72415;Laerm;60995;52.154;4.498;2023-07-13T12:23:31;50.19;42.61;59.28;;
72415;Laerm;60995;52.154;4.498;2023-07-13T12:25:48;57.37;42.36;85.35;;
72415;Laerm;60995;52.154;4.498;2023-07-13T12:30:58;50.81;42.62;62.78;;
72415;Laerm;60995;52.154;4.498;2023-07-13T12:33:16;49.79;42.15;61.41;;
72415;Laerm;60995;52.154;4.498;2023-07-13T12:35:46;49.97;41.15;63.46;;
72415;Laerm;60995;52.154;4.498;2023-07-13T12:38:03;50.69;42.33;62.69;;
72415;Laerm;60995;52.154;4.498;2023-07-13T12:40:33;50.37;42.04;62.15;;
72415;Laerm;60995;52.154;4.498;2023-07-13T12:42:52;50.59;42.06;60.50;;
72415;Laerm;60995;52.154;4.498;2023-07-13T12:45:23;49.30;40.32;58.21;;
72415;Laerm;60995;52.154;4.498;2023-07-13T12:47:42;51.46;44.04;66.87;;
72415;Laerm;60995;52.154;4.498;2023-07-13T12:49:59;50.84;41.43;65.41;;
72415;Laerm;60995;52.154;4.498;2023-07-13T12:52:34;51.28;40.84;68.33;;
72415;Laerm;60995;52.154;4.498;2023-07-13T12:55:03;52.66;43.74;68.99;;
72415;Laerm;60995;52.154;4.498;2023-07-13T12:57:20;50.54;40.86;71.28;;
72415;Laerm;60995;52.154;4.498;2023-07-13T12:59:36;49.71;42.42;68.77;;
72415;Laerm;60995;52.154;4.498;2023-07-13T13:01:54;50.59;43.83;62.56;;
72415;Laerm;60995;52.154;4.498;2023-07-13T13:04:11;50.45;41.45;63.83;;
72415;Laerm;60995;52.154;4.498;2023-07-13T13:06:29;50.97;41.61;62.76;;
72415;Laerm;60995;52.154;4.498;2023-07-13T13:08:57;50.70;43.53;60.40;;
72415;Laerm;60995;52.154;4.498;2023-07-13T13:11:15;50.26;43.52;59.56;;
72415;Laerm;60995;52.154;4.498;2023-07-13T13:13:32;50.18;42.29;70.96;;
72415;Laerm;60995;52.154;4.498;2023-07-13T13:15:48;50.76;41.97;69.37;;
72415;Laerm;60995;52.154;4.498;2023-07-13T13:18:15;50.15;42.66;60.19;;
72415;Laerm;60995;52.154;4.498;2023-07-13T13:20:32;49.80;41.73;60.75;;
72415;Laerm;60995;52.154;4.498;2023-07-13T13:22:48;51.12;41.72;69.89;;
72415;Laerm;60995;52.154;4.498;2023-07-13T13:25:05;51.26;41.79;62.77;;
72415;Laerm;60995;52.154;4.498;2023-07-13T13:27:22;50.66;41.80;74.99;;